createdAt,value
2023-04-30T00:01:05.983Z,14.09
2023-04-30T00:03:56.295Z,14.06
2023-04-30T00:06:46.495Z,14.00
2023-04-30T00:09:36.664Z,13.94
2023-04-30T00:12:26.978Z,13.90
2023-04-30T00:15:17.021Z,13.88
2023-04-30T00:18:07.440Z,13.86
2023-04-30T00:20:58.164Z,13.84
2023-04-30T00:23:48.604Z,13.83
2023-04-30T00:26:39.923Z,13.81
2023-04-30T00:29:30.087Z,13.78
2023-04-30T00:32:20.561Z,13.78
2023-04-30T00:35:13.872Z,13.77
2023-04-30T00:38:10.655Z,13.71
2023-04-30T00:41:06.036Z,13.65
2023-04-30T00:44:21.029Z,13.59
2023-04-30T00:47:19.802Z,13.51
2023-04-30T00:50:11.361Z,13.48
2023-04-30T00:53:07.345Z,13.39
2023-04-30T00:56:00.399Z,13.26
2023-04-30T00:58:51.603Z,13.15
2023-04-30T01:01:45.355Z,13.08
2023-04-30T01:04:41.827Z,12.98
2023-04-30T01:07:32.820Z,12.87
2023-04-30T01:10:24.428Z,12.83
2023-04-30T01:13:19.283Z,12.81
2023-04-30T01:16:14.187Z,12.77
2023-04-30T01:19:07.305Z,12.70
2023-04-30T01:21:58.727Z,12.64
2023-04-30T01:25:00.564Z,12.65
2023-04-30T01:28:02.911Z,12.66
2023-04-30T01:30:53.400Z,12.66
2023-04-30T01:33:44.030Z,12.65
2023-04-30T01:36:45.776Z,12.63
2023-04-30T01:39:48.314Z,12.57
2023-04-30T01:42:43.050Z,12.52
2023-04-30T01:45:42.994Z,12.46
2023-04-30T01:48:41.252Z,12.44
2023-04-30T01:51:33.762Z,12.45
2023-04-30T01:54:34.158Z,12.46
2023-04-30T01:57:30.205Z,12.47
2023-04-30T02:00:20.794Z,12.50
2023-04-30T02:03:11.200Z,12.53
2023-04-30T02:06:01.761Z,12.52
2023-04-30T02:08:52.717Z,12.45
2023-04-30T02:11:43.170Z,12.34
2023-04-30T02:18:26.276Z,12.19
2023-04-30T02:21:25.513Z,12.14
2023-04-30T02:24:16.472Z,12.10
2023-04-30T02:27:09.002Z,12.04
2023-04-30T02:29:59.906Z,12.01
2023-04-30T02:32:50.139Z,12.00
2023-04-30T02:35:42.296Z,11.96
2023-04-30T02:38:32.546Z,11.93
2023-04-30T02:41:22.968Z,11.88
2023-04-30T02:44:13.204Z,11.81
2023-04-30T02:47:03.718Z,11.77
2023-04-30T02:49:55.070Z,11.75
2023-04-30T02:52:46.023Z,11.72
2023-04-30T02:55:36.313Z,11.72
2023-04-30T02:58:27.572Z,11.70
2023-04-30T03:01:17.923Z,11.70
2023-04-30T03:04:08.108Z,11.69
2023-04-30T03:06:58.334Z,11.71
2023-04-30T03:09:48.821Z,11.73
2023-04-30T03:12:39.234Z,11.72
2023-04-30T03:15:29.512Z,11.73
2023-04-30T03:18:20.143Z,11.76
2023-04-30T03:21:10.943Z,11.81
2023-04-30T03:24:01.062Z,11.86
2023-04-30T03:26:51.893Z,11.92
2023-04-30T03:29:42.406Z,11.99
2023-04-30T03:32:32.997Z,12.05
2023-04-30T03:35:23.439Z,12.08
2023-04-30T03:38:13.718Z,12.08
2023-04-30T03:41:04.059Z,12.08
2023-04-30T03:43:54.689Z,12.09
2023-04-30T03:46:45.093Z,12.12
2023-04-30T03:49:36.208Z,12.17
2023-04-30T03:52:28.584Z,12.23
2023-04-30T03:55:24.044Z,12.26
2023-04-30T03:58:34.088Z,12.27
2023-04-30T04:01:56.630Z,12.32
2023-04-30T04:04:55.553Z,12.38
2023-04-30T04:08:25.139Z,12.43
2023-04-30T04:15:21.139Z,12.49
2023-04-30T04:18:39.287Z,12.51
2023-04-30T04:21:57.376Z,12.52
2023-04-30T04:25:09.534Z,12.52
2023-04-30T04:31:42.920Z,12.53
2023-04-30T04:34:47.273Z,12.56
2023-04-30T04:37:43.639Z,12.61
2023-04-30T04:40:43.968Z,12.62
2023-04-30T04:44:06.999Z,12.64
2023-04-30T04:47:04.428Z,12.64
2023-04-30T04:50:23.647Z,12.67
2023-04-30T04:53:44.420Z,12.68
2023-04-30T04:56:37.159Z,12.68
2023-04-30T04:59:27.962Z,12.68
2023-04-30T05:02:18.448Z,12.65
2023-04-30T05:05:27.320Z,12.64
2023-04-30T05:08:27.589Z,12.64
2023-04-30T05:11:27.120Z,12.63
2023-04-30T05:14:39.082Z,12.61
2023-04-30T05:17:33.101Z,12.59
2023-04-30T05:20:45.963Z,12.56
2023-04-30T05:23:46.790Z,12.51
2023-04-30T05:26:45.945Z,12.44
2023-04-30T05:30:17.213Z,12.34
2023-04-30T05:33:33.135Z,12.25
2023-04-30T05:36:23.268Z,12.18
2023-04-30T05:42:30.340Z,12.20
2023-04-30T05:45:22.131Z,12.23
2023-04-30T05:48:12.415Z,12.23
2023-04-30T05:51:23.542Z,12.26
2023-04-30T05:54:32.015Z,12.26
2023-04-30T05:57:30.014Z,12.29
2023-04-30T06:00:44.672Z,12.32
2023-04-30T06:04:12.091Z,12.34
2023-04-30T06:07:13.277Z,12.37
2023-04-30T06:13:34.743Z,12.42
2023-04-30T06:16:39.391Z,12.44
2023-04-30T06:19:29.692Z,12.48
2023-04-30T06:22:27.667Z,12.55
2023-04-30T06:25:17.841Z,12.58
2023-04-30T06:28:14.662Z,12.58
2023-04-30T06:34:31.801Z,12.63
2023-04-30T06:37:27.095Z,12.63
2023-04-30T06:43:34.840Z,12.65
2023-04-30T06:46:28.574Z,12.71
2023-04-30T06:49:42.477Z,12.78
2023-04-30T06:52:36.091Z,12.80
2023-04-30T06:58:57.865Z,12.92
2023-04-30T07:05:07.403Z,13.46
2023-04-30T07:08:15.699Z,13.76
2023-04-30T07:11:21.657Z,13.91
2023-04-30T07:14:22.155Z,13.99
2023-04-30T07:17:22.331Z,14.02
2023-04-30T07:20:18.349Z,14.05
2023-04-30T07:23:10.245Z,14.06
2023-04-30T07:26:06.027Z,14.00
2023-04-30T07:29:12.158Z,13.88
2023-04-30T07:32:11.188Z,13.93
2023-04-30T07:35:15.680Z,14.28
2023-04-30T07:38:19.109Z,14.72
2023-04-30T07:44:39.370Z,15.56
2023-04-30T07:47:40.396Z,15.84
2023-04-30T07:50:36.733Z,15.83
2023-04-30T07:53:33.771Z,15.78
2023-04-30T07:56:31.511Z,15.69
2023-04-30T07:59:32.591Z,15.65
2023-04-30T08:02:31.541Z,15.54
2023-04-30T08:05:25.640Z,15.41
2023-04-30T08:08:24.013Z,15.36
2023-04-30T08:11:19.670Z,15.47
2023-04-30T08:14:13.043Z,15.71
2023-04-30T08:17:14.118Z,15.89
2023-04-30T08:20:14.063Z,15.96
2023-04-30T08:23:07.216Z,15.94
2023-04-30T08:26:06.938Z,15.96
2023-04-30T08:32:39.380Z,15.88
2023-04-30T08:35:38.756Z,16.09
2023-04-30T08:38:41.325Z,16.84
2023-04-30T08:41:54.490Z,17.64
2023-04-30T08:44:55.151Z,17.73
2023-04-30T08:47:52.900Z,17.53
2023-04-30T08:50:45.546Z,17.50
2023-04-30T08:53:42.062Z,17.65
2023-04-30T08:56:42.761Z,18.36
2023-04-30T08:59:46.270Z,19.37
2023-04-30T09:02:41.592Z,20.01
2023-04-30T09:05:43.031Z,20.49
2023-04-30T09:08:47.827Z,21.69
2023-04-30T09:11:51.132Z,22.38
2023-04-30T09:14:58.353Z,23.53
2023-04-30T09:17:51.551Z,24.91
2023-04-30T09:20:56.449Z,25.89
2023-04-30T09:24:00.299Z,26.92
2023-04-30T09:26:50.931Z,27.85
2023-04-30T09:29:41.202Z,28.49
2023-04-30T09:32:31.389Z,29.03
2023-04-30T09:35:31.430Z,29.66
2023-04-30T09:38:28.833Z,30.20
2023-04-30T09:41:26.430Z,30.48
2023-04-30T09:44:32.699Z,30.14
2023-04-30T09:47:23.111Z,30.76
2023-04-30T09:50:14.888Z,31.46
2023-04-30T09:53:09.138Z,31.53
2023-04-30T09:55:59.844Z,30.96
2023-04-30T09:58:51.775Z,30.84
2023-04-30T10:01:42.224Z,29.59
2023-04-30T10:04:35.221Z,29.16
2023-04-30T10:07:26.428Z,29.06
2023-04-30T10:10:16.836Z,29.80
2023-04-30T10:13:11.169Z,30.82
2023-04-30T10:16:05.802Z,31.60
2023-04-30T10:18:59.473Z,31.49
2023-04-30T10:21:50.285Z,29.56
2023-04-30T10:24:40.960Z,27.96
2023-04-30T10:27:31.601Z,27.38
2023-04-30T10:30:23.168Z,26.60
2023-04-30T10:33:17.402Z,25.30
2023-04-30T10:36:09.377Z,24.32
2023-04-30T10:39:00.106Z,25.43
2023-04-30T10:41:50.270Z,25.26
2023-04-30T10:44:40.768Z,25.03
2023-04-30T10:47:31.594Z,24.75
2023-04-30T10:50:25.312Z,24.56
2023-04-30T10:53:17.253Z,23.81
2023-04-30T10:56:10.465Z,23.05
2023-04-30T10:59:02.485Z,22.63
2023-04-30T11:02:00.189Z,22.50
2023-04-30T11:05:07.678Z,22.79
2023-04-30T11:07:59.778Z,23.03
2023-04-30T11:11:00.279Z,23.38
2023-04-30T11:14:00.348Z,24.69
2023-04-30T11:16:52.155Z,27.69
2023-04-30T11:19:49.908Z,29.71
2023-04-30T11:22:40.064Z,31.59
2023-04-30T11:25:40.626Z,33.17
2023-04-30T11:28:31.941Z,34.55
2023-04-30T11:31:22.338Z,35.85
2023-04-30T11:34:13.753Z,36.62
2023-04-30T11:37:04.633Z,35.55
2023-04-30T11:39:55.063Z,35.31
2023-04-30T11:42:46.703Z,33.99
2023-04-30T11:45:36.923Z,32.58
2023-04-30T11:48:31.709Z,31.24
2023-04-30T11:51:22.568Z,29.59
2023-04-30T11:54:16.161Z,27.69
2023-04-30T11:57:06.559Z,25.80
2023-04-30T11:59:57.018Z,24.23
2023-04-30T12:02:48.212Z,22.85
2023-04-30T12:05:42.072Z,21.66
2023-04-30T12:08:33.030Z,20.64
2023-04-30T12:11:25.643Z,19.88
2023-04-30T12:14:16.229Z,19.18
2023-04-30T12:17:06.533Z,18.61
2023-04-30T12:19:56.875Z,18.22
2023-04-30T12:22:47.389Z,17.90
2023-04-30T12:25:44.052Z,17.66
2023-04-30T12:28:35.628Z,17.70
2023-04-30T12:31:26.020Z,17.87
2023-04-30T12:34:17.298Z,17.99
2023-04-30T12:37:07.907Z,18.28
2023-04-30T12:39:58.408Z,20.34
2023-04-30T12:42:49.416Z,23.60
2023-04-30T12:45:51.604Z,25.65
2023-04-30T12:48:46.030Z,27.72
2023-04-30T12:51:36.369Z,29.52
2023-04-30T12:54:30.266Z,28.72
2023-04-30T12:57:20.752Z,27.82
2023-04-30T13:00:11.893Z,26.47
2023-04-30T13:03:02.219Z,24.77
2023-04-30T13:05:53.061Z,25.17
2023-04-30T13:08:57.119Z,26.72
2023-04-30T13:11:48.569Z,28.15
2023-04-30T13:14:39.182Z,29.34
2023-04-30T13:17:29.531Z,30.34
2023-04-30T13:23:53.415Z,31.52
2023-04-30T13:26:45.468Z,30.16
2023-04-30T13:29:35.794Z,27.59
2023-04-30T13:32:26.115Z,25.60
2023-04-30T13:35:16.607Z,24.21
2023-04-30T13:38:06.915Z,23.69
2023-04-30T13:40:57.234Z,24.44
2023-04-30T13:43:48.646Z,26.47
2023-04-30T13:46:38.992Z,28.31
2023-04-30T13:49:29.354Z,29.55
2023-04-30T13:52:20.214Z,29.41
2023-04-30T13:55:11.246Z,29.36
2023-04-30T13:58:01.630Z,29.82
2023-04-30T14:00:52.336Z,29.73
2023-04-30T14:03:42.749Z,29.14
2023-04-30T14:06:33.188Z,27.92
2023-04-30T14:09:23.828Z,26.74
2023-04-30T14:12:14.312Z,25.56
2023-04-30T14:15:05.934Z,24.56
2023-04-30T14:17:56.215Z,23.78
2023-04-30T14:20:46.423Z,23.27
2023-04-30T14:23:36.782Z,22.93
2023-04-30T14:26:26.980Z,22.70
2023-04-30T14:29:20.456Z,22.35
2023-04-30T14:32:12.031Z,22.14
2023-04-30T14:35:02.803Z,22.63
2023-04-30T14:37:53.233Z,23.39
2023-04-30T14:40:44.144Z,23.53
2023-04-30T14:43:34.383Z,23.21
2023-04-30T14:46:24.698Z,22.80
2023-04-30T14:49:15.170Z,22.26
2023-04-30T14:52:05.423Z,21.64
2023-04-30T14:54:56.211Z,21.14
2023-04-30T14:57:46.527Z,21.04
2023-04-30T15:00:36.903Z,21.53
2023-04-30T15:03:27.257Z,22.17
2023-04-30T15:06:18.049Z,22.62
2023-04-30T15:09:08.343Z,22.78
2023-04-30T15:11:58.699Z,22.79
2023-04-30T15:14:48.974Z,22.93
2023-04-30T15:17:39.303Z,23.05
2023-04-30T15:20:29.548Z,23.04
2023-04-30T15:23:19.829Z,22.99
2023-04-30T15:26:10.252Z,23.01
2023-04-30T15:29:00.465Z,22.75
2023-04-30T15:31:52.111Z,22.38
2023-04-30T15:34:45.328Z,21.87
2023-04-30T15:37:35.822Z,21.48
2023-04-30T15:40:26.160Z,21.14
2023-04-30T15:43:19.494Z,20.83
2023-04-30T15:46:09.906Z,20.44
2023-04-30T15:49:00.367Z,19.96
2023-04-30T15:51:50.460Z,19.49
2023-04-30T15:54:41.316Z,19.33
2023-04-30T15:57:31.513Z,19.31
2023-04-30T16:00:23.527Z,19.44
2023-04-30T16:03:14.710Z,19.64
2023-04-30T16:06:05.076Z,19.82
2023-04-30T16:08:55.364Z,20.13
2023-04-30T16:11:45.498Z,20.37
2023-04-30T16:14:35.709Z,20.41
2023-04-30T16:17:26.949Z,20.42
2023-04-30T16:20:20.539Z,20.25
2023-04-30T16:23:11.317Z,19.97
2023-04-30T16:26:01.666Z,19.68
2023-04-30T16:28:51.957Z,19.50
2023-04-30T16:31:42.826Z,19.33
2023-04-30T16:34:33.064Z,19.23
2023-04-30T16:37:23.305Z,19.22
2023-04-30T16:40:17.160Z,19.16
2023-04-30T16:43:08.238Z,19.01
2023-04-30T16:45:58.511Z,18.84
2023-04-30T16:48:49.544Z,18.67
2023-04-30T16:51:40.098Z,18.56
2023-04-30T16:54:30.340Z,18.41
2023-04-30T16:57:21.251Z,18.22
2023-04-30T17:00:14.251Z,18.02
2023-04-30T17:03:05.624Z,17.97
2023-04-30T17:05:56.020Z,18.09
2023-04-30T17:08:46.247Z,18.17
2023-04-30T17:11:36.507Z,18.12
2023-04-30T17:14:26.836Z,17.97
2023-04-30T17:17:17.212Z,17.82
2023-04-30T17:20:08.693Z,17.69
2023-04-30T17:22:59.425Z,17.65
2023-04-30T17:25:49.622Z,17.64
2023-04-30T17:28:40.068Z,17.58
2023-04-30T17:31:31.645Z,17.51
2023-04-30T17:34:21.894Z,17.49
2023-04-30T17:37:12.180Z,17.53
2023-04-30T17:40:02.375Z,17.57
2023-04-30T17:42:52.625Z,17.61
2023-04-30T17:45:44.363Z,17.64
2023-04-30T17:48:34.718Z,17.62
2023-04-30T17:51:29.430Z,17.50
2023-04-30T17:54:20.199Z,17.42
2023-04-30T17:57:10.371Z,17.44
2023-04-30T18:00:01.369Z,17.55
2023-04-30T18:02:52.381Z,17.73
2023-04-30T18:05:42.762Z,17.91
2023-04-30T18:08:34.059Z,17.93
2023-04-30T18:11:24.385Z,17.78
2023-04-30T18:14:14.689Z,17.54
2023-04-30T18:17:05.055Z,17.22
2023-04-30T18:19:55.532Z,17.01
2023-04-30T18:22:46.009Z,16.86
2023-04-30T18:25:37.173Z,16.74
2023-04-30T18:28:27.783Z,16.59
2023-04-30T18:31:18.214Z,16.50
2023-04-30T18:34:08.583Z,16.39
2023-04-30T18:36:59.080Z,16.29
2023-04-30T18:39:51.373Z,16.22
2023-04-30T18:42:41.626Z,16.16
2023-04-30T18:45:32.084Z,16.08
2023-04-30T18:48:23.150Z,16.01
2023-04-30T18:51:13.462Z,15.96
2023-04-30T18:54:04.039Z,15.92
2023-04-30T18:56:54.580Z,15.83
2023-04-30T18:59:45.208Z,15.74
2023-04-30T19:02:36.167Z,15.62
2023-04-30T19:05:26.715Z,15.54
2023-04-30T19:08:17.040Z,15.43
2023-04-30T19:11:07.643Z,15.32
2023-04-30T19:13:58.684Z,15.21
2023-04-30T19:16:49.179Z,15.14
2023-04-30T19:19:39.808Z,15.07
2023-04-30T19:22:30.113Z,15.01
2023-04-30T19:25:24.062Z,14.94
2023-04-30T19:28:15.713Z,14.87
2023-04-30T19:31:06.163Z,14.75
2023-04-30T19:33:56.438Z,14.60
2023-04-30T19:36:47.712Z,14.47
2023-04-30T19:39:38.098Z,14.37
2023-04-30T19:42:30.371Z,14.29
2023-04-30T19:45:21.367Z,14.22
2023-04-30T19:48:13.466Z,14.17
2023-04-30T19:51:05.703Z,14.10
2023-04-30T19:53:57.514Z,14.09
2023-04-30T19:56:47.826Z,14.07
2023-04-30T19:59:38.707Z,14.06
2023-04-30T20:02:29.317Z,14.02
2023-04-30T20:05:20.092Z,13.99
2023-04-30T20:08:10.960Z,13.94
2023-04-30T20:11:03.253Z,13.88
2023-04-30T20:13:55.512Z,13.82
2023-04-30T20:16:46.398Z,13.73
2023-04-30T20:19:37.221Z,13.67
2023-04-30T20:22:27.655Z,13.63
2023-04-30T20:25:17.904Z,13.59
2023-04-30T20:28:08.274Z,13.58
2023-04-30T20:30:58.730Z,13.58
2023-04-30T20:33:49.491Z,13.53
2023-04-30T20:36:40.133Z,13.46
2023-04-30T20:39:30.449Z,13.38
2023-04-30T20:42:20.821Z,13.33
2023-04-30T20:45:12.370Z,13.28
2023-04-30T20:48:03.021Z,13.21
2023-04-30T20:50:53.346Z,13.13
2023-04-30T20:53:43.638Z,13.05
2023-04-30T20:56:33.834Z,13.00
2023-04-30T20:59:24.152Z,12.96
2023-04-30T21:02:14.930Z,12.91
2023-04-30T21:05:06.241Z,12.88
2023-04-30T21:08:01.940Z,12.85
2023-04-30T21:11:01.973Z,12.82
2023-04-30T21:13:52.303Z,12.78
2023-04-30T21:16:43.903Z,12.76
2023-04-30T21:19:34.218Z,12.73
2023-04-30T21:22:24.743Z,12.70
2023-04-30T21:25:15.057Z,12.67
2023-04-30T21:28:05.514Z,12.65
2023-04-30T21:30:55.990Z,12.61
2023-04-30T21:33:46.525Z,12.56
2023-04-30T21:36:39.866Z,12.53
2023-04-30T21:39:30.680Z,12.51
2023-04-30T21:42:20.909Z,12.51
2023-04-30T21:45:11.600Z,12.49
2023-04-30T21:48:02.295Z,12.46
2023-04-30T21:50:52.720Z,12.45
2023-04-30T21:53:43.263Z,12.45
2023-04-30T21:56:33.657Z,12.44
2023-04-30T21:59:24.958Z,12.42
2023-04-30T22:02:23.990Z,12.39
2023-04-30T22:05:15.161Z,12.37
2023-04-30T22:08:05.837Z,12.36
2023-04-30T22:10:58.571Z,12.38
2023-04-30T22:13:48.905Z,12.39
2023-04-30T22:16:39.199Z,12.41
2023-04-30T22:19:29.869Z,12.42
2023-04-30T22:22:20.168Z,12.44
2023-04-30T22:25:11.464Z,12.43
2023-04-30T22:28:01.928Z,12.42
2023-04-30T22:30:58.992Z,12.43
2023-04-30T22:33:52.316Z,12.42
2023-04-30T22:36:46.456Z,12.42
2023-04-30T22:39:36.928Z,12.42
2023-04-30T22:42:27.754Z,12.44
2023-04-30T22:45:18.209Z,12.44
2023-04-30T22:48:09.921Z,12.43
2023-04-30T22:51:00.720Z,12.42
2023-04-30T22:53:51.286Z,12.43
2023-04-30T22:56:41.610Z,12.43
2023-04-30T22:59:31.887Z,12.44
2023-04-30T23:02:26.437Z,12.45
2023-04-30T23:05:17.467Z,12.46
2023-04-30T23:08:32.695Z,12.46
2023-04-30T23:11:28.112Z,12.47
2023-04-30T23:18:07.238Z,12.46
2023-04-30T23:20:59.043Z,12.46
2023-04-30T23:23:49.775Z,12.47
2023-04-30T23:26:40.503Z,12.48
2023-04-30T23:29:30.976Z,12.46
2023-04-30T23:32:21.343Z,12.41
2023-04-30T23:35:14.806Z,12.37
2023-04-30T23:38:05.032Z,12.34
2023-04-30T23:40:56.593Z,12.30
2023-04-30T23:43:46.898Z,12.25
2023-04-30T23:46:37.357Z,12.22
2023-04-30T23:49:27.702Z,12.20
2023-04-30T23:52:23.843Z,12.19
2023-04-30T23:55:14.153Z,12.19
2023-04-30T23:58:06.804Z,12.18
